Time;durP1;ratioP1;P1;durP2;ratioP2;P2;SDS_P1;SDS_P2;PMS_P1;PMS_P2;Temp;Humidity;BMP_temperature;BMP_pressure;BME280_temperature;BME280_humidity;BME280_pressure;Samples;Min_cycle;Max_cycle;Signal;HPM_P1;HPM_P2
2022/11/07 00:00:31;;;;;;;;;;;16.20;92.30;;;;;;5097470;28;19909;-45
2022/11/07 00:02:57;;;;;;;;;;;16.20;92.30;;;;;;5096826;28;19908;-43
2022/11/07 00:05:22;;;;;;;;;;;16.20;92.20;;;;;;5097081;28;20000;-45
2022/11/07 00:07:48;;;;;;;;;;;16.20;92.30;;;;;;5096579;28;19981;-43
2022/11/07 00:10:13;;;;;;;;;;;16.20;92.30;;;;;;5078657;28;19920;-43
2022/11/07 00:12:39;;;;;;;;;;;16.20;92.30;;;;;;5097152;28;19934;-45
2022/11/07 00:15:05;;;;;;;;;;;16.10;92.40;;;;;;5096757;28;19908;-44
2022/11/07 00:17:31;;;;;;;;;;;16.10;92.40;;;;;;5096734;28;19986;-43
2022/11/07 00:19:56;;;;;;;;;;;16.10;92.40;;;;;;5096427;28;20012;-44
2022/11/07 00:22:22;;;;;;;;;;;16.10;92.40;;;;;;5078582;28;19915;-43
2022/11/07 00:24:47;;;;;;;;;;;16.10;92.40;;;;;;5096391;28;19908;-43
2022/11/07 00:27:13;;;;;;;;;;;16.00;92.40;;;;;;5096229;28;19918;-42
2022/11/07 00:29:39;;;;;;;;;;;16.10;92.40;;;;;;5096844;28;19997;-43
2022/11/07 00:32:05;;;;;;;;;;;16.10;92.40;;;;;;5096530;28;19908;-43
2022/11/07 00:34:31;;;;;;;;;;;16.00;92.40;;;;;;5096177;28;19962;-42
2022/11/07 00:36:57;;;;;;;;;;;16.00;92.30;;;;;;5096455;28;19908;-43
2022/11/07 00:39:22;;;;;;;;;;;16.00;92.30;;;;;;5096398;28;19999;-43
2022/11/07 00:41:48;;;;;;;;;;;16.00;92.40;;;;;;5096017;28;19957;-43
2022/11/07 00:44:13;;;;;;;;;;;16.00;92.30;;;;;;5096280;28;19998;-43
2022/11/07 00:46:39;;;;;;;;;;;16.00;92.30;;;;;;5096139;28;20409;-43
2022/11/07 00:49:04;;;;;;;;;;;16.00;92.30;;;;;;5096190;28;19958;-43
2022/11/07 00:51:30;;;;;;;;;;;16.00;92.30;;;;;;5095701;28;19916;-43
2022/11/07 00:53:56;;;;;;;;;;;16.00;92.30;;;;;;5096050;28;19908;-43
2022/11/07 00:56:23;;;;;;;;;;;16.00;92.30;;;;;;5095968;28;20404;-43
2022/11/07 00:58:52;;;;;;;;;;;16.00;92.20;;;;;;5096005;28;19915;-43
2022/11/07 01:01:21;;;;;;;;;;;16.00;92.20;;;;;;5095653;28;19908;-41
2022/11/07 01:06:31;;;;;;;;;;;16.00;92.20;;;;;;5095968;28;19915;-43
2022/11/07 01:08:57;;;;;;;;;;;16.00;92.20;;;;;;5095995;28;20008;-45
2022/11/07 01:11:23;;;;;;;;;;;16.00;92.20;;;;;;5095338;28;19986;-40
2022/11/07 01:13:49;;;;;;;;;;;16.00;92.20;;;;;;5094828;28;19908;-41
2022/11/07 01:16:14;;;;;;;;;;;16.00;92.20;;;;;;5095624;28;20335;-41
2022/11/07 01:18:40;;;;;;;;;;;16.00;92.20;;;;;;5095658;28;19908;-42
2022/11/07 01:21:06;;;;;;;;;;;15.90;92.20;;;;;;5095552;28;19973;-43
2022/11/07 01:23:32;;;;;;;;;;;15.90;92.30;;;;;;5095500;28;19908;-42
2022/11/07 01:26:02;;;;;;;;;;;15.90;92.20;;;;;;5095429;28;19908;-41
2022/11/07 01:28:28;;;;;;;;;;;15.90;92.30;;;;;;5095056;28;19993;-41
2022/11/07 01:30:53;;;;;;;;;;;15.90;92.30;;;;;;5095066;28;20025;-41
2022/11/07 01:33:18;;;;;;;;;;;15.90;92.30;;;;;;5095090;28;19915;-42
2022/11/07 01:35:44;;;;;;;;;;;15.90;92.40;;;;;;5094922;28;20386;-43
2022/11/07 01:38:09;;;;;;;;;;;15.90;92.30;;;;;;5095288;28;19916;-41
2022/11/07 01:41:19;;;;;;;;;;;15.80;92.30;;;;;;5094829;28;20018;-41
2022/11/07 01:43:39;;;;;;;;;;;15.80;92.40;;;;;;5095131;28;19908;-41
2022/11/07 01:46:04;;;;;;;;;;;15.80;92.30;;;;;;5094769;28;19908;-41
2022/11/07 01:48:30;;;;;;;;;;;15.80;92.30;;;;;;5095011;28;20045;-41
2022/11/07 01:50:55;;;;;;;;;;;15.80;92.40;;;;;;5094891;28;19916;-42
2022/11/07 01:53:21;;;;;;;;;;;15.80;92.50;;;;;;5094599;28;19908;-42
2022/11/07 01:55:46;;;;;;;;;;;15.70;92.50;;;;;;5094839;28;19915;-42
2022/11/07 01:58:12;;;;;;;;;;;15.70;92.60;;;;;;5094950;28;19908;-41
2022/11/07 02:00:37;;;;;;;;;;;15.70;92.60;;;;;;5094571;28;19912;-43
2022/11/07 02:03:14;;;;;;;;;;;15.70;92.60;;;;;;5094437;28;19912;-43
2022/11/07 02:05:43;;;;;;;;;;;15.60;92.60;;;;;;5094820;28;19934;-41
2022/11/07 02:08:09;;;;;;;;;;;15.70;92.70;;;;;;5094473;28;19973;-42
2022/11/07 02:10:35;;;;;;;;;;;15.70;92.70;;;;;;5094598;28;19916;-43
2022/11/07 02:13:01;;;;;;;;;;;15.70;92.70;;;;;;5094349;28;19914;-42
2022/11/07 02:15:27;;;;;;;;;;;15.70;92.70;;;;;;5094581;28;19912;-42
2022/11/07 02:17:52;;;;;;;;;;;15.70;92.70;;;;;;5094531;28;19995;-43
2022/11/07 02:20:18;;;;;;;;;;;15.60;92.70;;;;;;5094502;28;19950;-43
2022/11/07 02:22:50;;;;;;;;;;;15.70;92.70;;;;;;5094492;28;19948;-41
2022/11/07 02:25:17;;;;;;;;;;;15.70;92.70;;;;;;5093657;28;19908;-42
2022/11/07 02:27:43;;;;;;;;;;;15.70;92.70;;;;;;5094185;28;20362;-44
2022/11/07 02:30:17;;;;;;;;;;;15.70;92.70;;;;;;5094050;28;19916;-42
2022/11/07 02:32:42;;;;;;;;;;;15.60;92.70;;;;;;5094310;28;19908;-43
2022/11/07 02:35:26;;;;;;;;;;;15.60;92.70;;;;;;5094350;28;19908;-41
2022/11/07 02:37:52;;;;;;;;;;;15.70;92.70;;;;;;5094253;28;20405;-43
2022/11/07 02:40:18;;;;;;;;;;;15.70;92.70;;;;;;5093914;28;19908;-41
2022/11/07 02:42:44;;;;;;;;;;;15.70;92.70;;;;;;5094248;28;19977;-41
2022/11/07 02:45:21;;;;;;;;;;;15.70;92.70;;;;;;5094206;28;20002;-41
2022/11/07 02:47:46;;;;;;;;;;;15.70;92.70;;;;;;5094249;28;19908;-44
2022/11/07 02:50:13;;;;;;;;;;;15.60;92.70;;;;;;5094083;28;20385;-42
2022/11/07 02:52:38;;;;;;;;;;;15.60;92.70;;;;;;5093852;28;19908;-42
2022/11/07 02:55:05;;;;;;;;;;;15.70;92.70;;;;;;5094107;28;19909;-42
2022/11/07 02:57:30;;;;;;;;;;;15.60;92.70;;;;;;5094087;28;19908;-41
2022/11/07 02:59:56;;;;;;;;;;;15.60;92.60;;;;;;5093800;28;19999;-42
2022/11/07 03:02:22;;;;;;;;;;;15.60;92.70;;;;;;5075955;28;19908;-43
2022/11/07 03:04:47;;;;;;;;;;;15.60;92.70;;;;;;5094061;28;19969;-43
2022/11/07 03:07:13;;;;;;;;;;;15.60;92.70;;;;;;5093732;28;20362;-44
2022/11/07 03:09:38;;;;;;;;;;;15.60;92.70;;;;;;5093769;28;20347;-41
2022/11/07 03:12:04;;;;;;;;;;;15.60;92.70;;;;;;5093889;28;19966;-41
2022/11/07 03:14:29;;;;;;;;;;;15.60;92.60;;;;;;5093581;28;19908;-41
2022/11/07 03:16:55;;;;;;;;;;;15.60;92.70;;;;;;5094239;28;19915;-41
2022/11/07 03:19:20;;;;;;;;;;;15.60;92.60;;;;;;5076217;28;19908;-43
2022/11/07 03:21:48;;;;;;;;;;;15.60;92.60;;;;;;5093972;28;19915;-42
2022/11/07 03:24:13;;;;;;;;;;;15.60;92.70;;;;;;5093631;28;19957;-43
2022/11/07 03:26:39;;;;;;;;;;;15.60;92.70;;;;;;5075749;28;20297;-42
2022/11/07 03:29:05;;;;;;;;;;;15.60;92.60;;;;;;5093546;28;19952;-42
2022/11/07 03:31:30;;;;;;;;;;;15.60;92.60;;;;;;5093387;28;20358;-41
2022/11/07 03:33:55;;;;;;;;;;;15.60;92.70;;;;;;5093684;28;19908;-41
2022/11/07 03:36:21;;;;;;;;;;;15.60;92.70;;;;;;5077676;28;19908;-41
2022/11/07 03:38:46;;;;;;;;;;;15.60;92.70;;;;;;5097502;28;19909;-43
2022/11/07 03:41:16;;;;;;;;;;;15.60;92.70;;;;;;5097186;28;20337;-43
2022/11/07 03:43:42;;;;;;;;;;;15.60;92.70;;;;;;5097201;28;20347;-41
2022/11/07 03:46:07;;;;;;;;;;;15.60;92.80;;;;;;5097056;28;20340;-43
2022/11/07 03:48:33;;;;;;;;;;;15.60;92.70;;;;;;5097288;28;19912;-41
2022/11/07 03:50:58;;;;;;;;;;;15.60;92.70;;;;;;5097206;28;19923;-41
2022/11/07 03:53:24;;;;;;;;;;;15.50;92.70;;;;;;5097517;28;20267;-41
2022/11/07 03:55:49;;;;;;;;;;;15.60;92.80;;;;;;5096854;28;19960;-44
2022/11/07 03:58:15;;;;;;;;;;;15.50;92.80;;;;;;5097146;28;19912;-43
2022/11/07 04:00:40;;;;;;;;;;;15.50;92.80;;;;;;5097066;28;19908;-44
2022/11/07 04:03:06;;;;;;;;;;;15.60;92.80;;;;;;5096698;28;20273;-42
2022/11/07 04:05:31;;;;;;;;;;;15.60;92.80;;;;;;5096960;28;19913;-42
2022/11/07 04:07:57;;;;;;;;;;;15.60;92.80;;;;;;5096919;28;19920;-42
2022/11/07 04:10:22;;;;;;;;;;;15.50;92.80;;;;;;5096612;28;19920;-42
2022/11/07 04:18:16;;;;;;;;;;;15.50;92.90;;;;;;5096591;28;19931;-42
2022/11/07 04:20:41;;;;;;;;;;;15.50;92.90;;;;;;5096484;28;20342;-42
2022/11/07 04:23:07;;;;;;;;;;;15.50;92.90;;;;;;5096391;28;19908;-41
2022/11/07 04:28:16;;;;;;;;;;;15.50;92.90;;;;;;5096415;28;19915;-42
2022/11/07 04:30:42;;;;;;;;;;;15.50;92.90;;;;;;5096152;28;19916;-42
2022/11/07 04:33:08;;;;;;;;;;;15.50;92.90;;;;;;5096385;28;20282;-42
2022/11/07 04:35:33;;;;;;;;;;;15.50;93.00;;;;;;5096369;28;20009;-43
2022/11/07 04:37:59;;;;;;;;;;;15.50;92.90;;;;;;5096000;28;20002;-42
2022/11/07 04:40:25;;;;;;;;;;;15.50;92.90;;;;;;5095919;28;20351;-44
2022/11/07 04:42:51;;;;;;;;;;;15.50;92.90;;;;;;5096259;28;19915;-42
2022/11/07 04:45:16;;;;;;;;;;;15.50;93.00;;;;;;5096304;28;19909;-42
2022/11/07 04:47:42;;;;;;;;;;;15.50;93.00;;;;;;5095529;28;19908;-42
2022/11/07 04:50:09;;;;;;;;;;;15.40;92.90;;;;;;5095676;28;19916;-42
2022/11/07 04:52:35;;;;;;;;;;;15.40;92.90;;;;;;5095751;28;19960;-41
2022/11/07 04:55:00;;;;;;;;;;;15.40;93.00;;;;;;5095656;28;20426;-42
2022/11/07 04:57:26;;;;;;;;;;;15.40;93.00;;;;;;5095983;28;19912;-42
2022/11/07 04:59:51;;;;;;;;;;;15.40;92.90;;;;;;5095683;28;19915;-44
2022/11/07 05:02:17;;;;;;;;;;;15.40;93.00;;;;;;5077571;28;19957;-44
2022/11/07 05:04:42;;;;;;;;;;;15.40;93.00;;;;;;5095763;28;20335;-42
2022/11/07 05:07:08;;;;;;;;;;;15.40;93.00;;;;;;5095537;28;19920;-42
2022/11/07 05:09:33;;;;;;;;;;;15.40;93.00;;;;;;5095760;28;19912;-44
2022/11/07 05:11:59;;;;;;;;;;;15.40;93.00;;;;;;5095440;28;20015;-42
2022/11/07 05:14:25;;;;;;;;;;;15.40;93.00;;;;;;5095592;28;19908;-42
2022/11/07 05:16:51;;;;;;;;;;;15.40;93.10;;;;;;5095266;28;19908;-42
2022/11/07 05:19:17;;;;;;;;;;;15.40;93.10;;;;;;5095200;28;20305;-42
2022/11/07 05:21:43;;;;;;;;;;;15.40;93.10;;;;;;5095162;28;19912;-41
2022/11/07 05:24:09;;;;;;;;;;;15.40;93.10;;;;;;5095224;28;19916;-43
2022/11/07 05:26:34;;;;;;;;;;;15.40;93.10;;;;;;5094888;28;19908;-42
2022/11/07 05:29:00;;;;;;;;;;;15.40;93.10;;;;;;5094976;28;19931;-42
2022/11/07 05:31:26;;;;;;;;;;;15.40;93.10;;;;;;5095156;28;19920;-42
2022/11/07 05:33:51;;;;;;;;;;;15.40;93.10;;;;;;5095030;28;19985;-42
2022/11/07 05:36:18;;;;;;;;;;;15.30;93.10;;;;;;5095069;28;20242;-41
2022/11/07 05:38:45;;;;;;;;;;;15.30;93.10;;;;;;5094961;28;19999;-42
2022/11/07 05:41:11;;;;;;;;;;;15.30;93.10;;;;;;5094646;28;20270;-41
2022/11/07 05:43:37;;;;;;;;;;;15.30;93.20;;;;;;5094989;28;19908;-44
2022/11/07 05:46:03;;;;;;;;;;;15.30;93.20;;;;;;5094948;28;19948;-43
2022/11/07 05:48:29;;;;;;;;;;;15.30;93.20;;;;;;5094861;28;19908;-42
2022/11/07 05:50:56;;;;;;;;;;;15.30;93.20;;;;;;5094822;28;19916;-43
2022/11/07 05:53:21;;;;;;;;;;;15.30;93.20;;;;;;5094839;28;19908;-42
2022/11/07 05:55:46;;;;;;;;;;;15.30;93.20;;;;;;5094785;28;19985;-43
2022/11/07 05:58:12;;;;;;;;;;;15.30;93.20;;;;;;5094632;28;19908;-41
2022/11/07 06:00:38;;;;;;;;;;;15.30;93.20;;;;;;5093297;28;19912;-43
2022/11/07 06:03:04;;;;;;;;;;;15.30;93.20;;;;;;5091828;28;20007;-42
2022/11/07 06:05:29;;;;;;;;;;;15.30;93.30;;;;;;5103520;28;19997;-42
2022/11/07 06:07:55;;;;;;;;;;;15.30;93.30;;;;;;5093929;28;19920;-42
2022/11/07 06:10:21;;;;;;;;;;;15.30;93.30;;;;;;5094200;28;20350;-43
2022/11/07 06:12:55;;;;;;;;;;;15.30;93.30;;;;;;5094356;28;19961;-42
2022/11/07 06:15:20;;;;;;;;;;;15.30;93.30;;;;;;5094414;28;20256;-43
2022/11/07 06:17:46;;;;;;;;;;;15.30;93.30;;;;;;5099404;28;19958;-43
2022/11/07 06:20:11;;;;;;;;;;;15.30;93.30;;;;;;5111550;28;19990;-44
2022/11/07 06:22:36;;;;;;;;;;;15.30;93.40;;;;;;5108143;28;19912;-41
2022/11/07 06:25:03;;;;;;;;;;;15.30;93.60;;;;;;5112108;28;20266;-42
2022/11/07 06:27:29;;;;;;;;;;;15.30;93.60;;;;;;5109121;28;20278;-42
2022/11/07 06:29:55;;;;;;;;;;;15.30;93.60;;;;;;5107633;28;19928;-42
2022/11/07 06:32:20;;;;;;;;;;;15.00;91.00;;;;;;5101415;28;19911;-42
2022/11/07 06:34:46;;;;;;;;;;;14.80;90.20;;;;;;5090490;28;19912;-42
2022/11/07 06:37:11;;;;;;;;;;;14.70;89.00;;;;;;5104892;28;19912;-43
2022/11/07 06:39:37;;;;;;;;;;;14.60;87.90;;;;;;5108670;28;19912;-42
2022/11/07 06:42:02;;;;;;;;;;;14.60;87.60;;;;;;5104647;28;20021;-45
2022/11/07 06:44:28;;;;;;;;;;;14.60;89.60;;;;;;5086054;28;19927;-44
2022/11/07 06:46:53;;;;;;;;;;;14.80;90.70;;;;;;5075402;28;19913;-44
2022/11/07 06:49:19;;;;;;;;;;;14.90;91.30;;;;;;5073442;28;19908;-42
2022/11/07 06:51:44;;;;;;;;;;;14.90;91.30;;;;;;5073426;28;19923;-42
2022/11/07 06:54:12;;;;;;;;;;;15.00;91.30;;;;;;5055429;28;20046;-43
2022/11/07 06:56:37;;;;;;;;;;;15.10;91.30;;;;;;5073639;28;19962;-43
2022/11/07 06:59:03;;;;;;;;;;;15.30;91.40;;;;;;5073559;28;19916;-44
2022/11/07 07:01:28;;;;;;;;;;;15.30;91.40;;;;;;5073546;28;20241;-45
2022/11/07 07:03:54;;;;;;;;;;;15.50;91.40;;;;;;5055642;28;19908;-42
2022/11/07 07:06:19;;;;;;;;;;;15.60;91.40;;;;;;5073145;28;19951;-43
2022/11/07 07:08:45;;;;;;;;;;;15.80;91.40;;;;;;5073733;28;19921;-44
2022/11/07 07:11:12;;;;;;;;;;;16.00;91.20;;;;;;5075258;28;20405;-44
2022/11/07 07:13:38;;;;;;;;;;;16.40;90.90;;;;;;5077122;28;20363;-43
2022/11/07 07:16:04;;;;;;;;;;;16.80;90.50;;;;;;5059626;28;19909;-43
2022/11/07 07:18:30;;;;;;;;;;;17.20;90.10;;;;;;5077328;28;19954;-44
2022/11/07 07:21:05;;;;;;;;;;;17.50;89.20;;;;;;5077235;28;20011;-43
2022/11/07 07:23:33;;;;;;;;;;;17.80;88.40;;;;;;5076879;28;19909;-42
2022/11/07 07:25:59;;;;;;;;;;;17.90;87.80;;;;;;5076983;28;19957;-43
2022/11/07 07:28:25;;;;;;;;;;;18.00;87.50;;;;;;5077014;28;19916;-43
2022/11/07 07:30:50;;;;;;;;;;;17.90;87.30;;;;;;5076553;28;19917;-44
2022/11/07 07:33:16;;;;;;;;;;;17.90;87.30;;;;;;5058963;28;19908;-44
2022/11/07 07:35:41;;;;;;;;;;;17.90;87.50;;;;;;5076603;28;20247;-42
2022/11/07 07:38:09;;;;;;;;;;;17.70;87.50;;;;;;5076955;28;20259;-44
2022/11/07 07:40:34;;;;;;;;;;;17.70;87.90;;;;;;5076822;28;20260;-42
2022/11/07 07:43:00;;;;;;;;;;;17.60;88.20;;;;;;5076588;28;19935;-44
2022/11/07 07:45:25;;;;;;;;;;;17.50;88.40;;;;;;5076468;28;20007;-42
2022/11/07 07:47:51;;;;;;;;;;;17.40;88.60;;;;;;5076472;28;19908;-42
2022/11/07 07:50:17;;;;;;;;;;;17.40;88.90;;;;;;5076562;28;19917;-43
2022/11/07 07:52:43;;;;;;;;;;;17.30;89.10;;;;;;5076579;28;20019;-44
2022/11/07 07:55:08;;;;;;;;;;;17.20;89.20;;;;;;5076622;28;19909;-42
2022/11/07 07:57:43;;;;;;;;;;;17.20;89.50;;;;;;5076338;28;19943;-42
2022/11/07 08:00:10;;;;;;;;;;;17.10;89.70;;;;;;5076089;28;19909;-42
2022/11/07 08:02:35;;;;;;;;;;;17.00;89.80;;;;;;5076343;28;20011;-42
2022/11/07 08:05:01;;;;;;;;;;;17.00;90.00;;;;;;5076713;28;19951;-43
2022/11/07 08:07:26;;;;;;;;;;;16.90;90.00;;;;;;5076199;28;19927;-42
2022/11/07 08:09:52;;;;;;;;;;;16.90;90.10;;;;;;5076536;28;19917;-43
2022/11/07 08:12:17;;;;;;;;;;;16.80;90.20;;;;;;5058718;28;20413;-43
2022/11/07 08:14:43;;;;;;;;;;;16.80;90.20;;;;;;5076366;28;20405;-42
2022/11/07 08:17:08;;;;;;;;;;;16.80;90.30;;;;;;5076331;28;19912;-43
2022/11/07 08:19:34;;;;;;;;;;;16.70;90.30;;;;;;5075941;28;19908;-43
2022/11/07 08:21:59;;;;;;;;;;;16.70;90.40;;;;;;5074956;28;20389;-43
2022/11/07 08:24:25;;;;;;;;;;;16.70;90.50;;;;;;5075876;28;19954;-42
2022/11/07 08:26:50;;;;;;;;;;;16.60;90.50;;;;;;5076116;28;19966;-43
2022/11/07 08:29:16;;;;;;;;;;;16.60;90.60;;;;;;5076128;28;19947;-44
2022/11/07 08:31:41;;;;;;;;;;;16.60;90.60;;;;;;5076091;28;20377;-42
2022/11/07 08:34:06;;;;;;;;;;;16.60;90.60;;;;;;5057962;28;19950;-44
2022/11/07 08:36:32;;;;;;;;;;;16.60;90.60;;;;;;5075827;28;19909;-43
2022/11/07 08:38:57;;;;;;;;;;;16.60;90.60;;;;;;5075523;28;19909;-43
2022/11/07 08:41:23;;;;;;;;;;;16.70;90.60;;;;;;5075524;28;19912;-42
2022/11/07 08:43:48;;;;;;;;;;;16.70;90.50;;;;;;5075787;28;19919;-42
2022/11/07 08:46:14;;;;;;;;;;;16.80;90.40;;;;;;5075674;28;19955;-43
2022/11/07 08:48:39;;;;;;;;;;;16.90;90.30;;;;;;5075269;28;20260;-42
2022/11/07 08:51:05;;;;;;;;;;;17.00;90.20;;;;;;5075545;28;20355;-43
2022/11/07 08:53:31;;;;;;;;;;;17.00;90.10;;;;;;5075469;28;19908;-42
2022/11/07 08:56:04;;;;;;;;;;;17.00;90.10;;;;;;5075207;28;19974;-43
2022/11/07 08:58:30;;;;;;;;;;;17.00;90.00;;;;;;5075290;28;19978;-46
2022/11/07 09:00:55;;;;;;;;;;;17.00;90.00;;;;;;5075530;28;20355;-43
2022/11/07 09:03:21;;;;;;;;;;;17.10;90.10;;;;;;5075470;28;19909;-43
2022/11/07 09:05:46;;;;;;;;;;;17.00;90.10;;;;;;5075285;28;19962;-43
2022/11/07 09:08:12;;;;;;;;;;;17.00;90.10;;;;;;5075061;28;19920;-43
2022/11/07 09:10:37;;;;;;;;;;;17.00;90.20;;;;;;5075357;28;19920;-42
2022/11/07 09:13:02;;;;;;;;;;;16.90;90.20;;;;;;5075104;28;19923;-45
2022/11/07 09:15:28;;;;;;;;;;;16.90;90.20;;;;;;5075252;28;19909;-42
2022/11/07 09:17:53;;;;;;;;;;;16.90;90.30;;;;;;5074816;28;20061;-42
2022/11/07 09:20:19;;;;;;;;;;;16.90;90.30;;;;;;5074977;28;19909;-42
2022/11/07 09:22:45;;;;;;;;;;;16.90;90.40;;;;;;5074776;28;20320;-44
2022/11/07 09:25:10;;;;;;;;;;;16.80;90.40;;;;;;5074904;28;19915;-42
2022/11/07 09:27:35;;;;;;;;;;;16.80;90.40;;;;;;5074918;28;19962;-46
2022/11/07 09:30:02;;;;;;;;;;;16.80;90.50;;;;;;5074691;28;19931;-43
2022/11/07 09:32:27;;;;;;;;;;;16.70;90.50;;;;;;5075125;28;19913;-46
2022/11/07 09:34:53;;;;;;;;;;;16.70;90.60;;;;;;5074511;28;19913;-43
2022/11/07 09:37:20;;;;;;;;;;;16.70;90.60;;;;;;5074919;28;19959;-44
2022/11/07 09:39:46;;;;;;;;;;;16.70;90.60;;;;;;5074531;28;19916;-45
2022/11/07 09:42:30;;;;;;;;;;;16.70;90.60;;;;;;5074435;28;19909;-41
2022/11/07 09:44:57;;;;;;;;;;;16.70;90.60;;;;;;5074234;28;20007;-42
2022/11/07 09:47:23;;;;;;;;;;;16.70;90.60;;;;;;5074214;28;19908;-41
2022/11/07 09:49:50;;;;;;;;;;;16.80;90.60;;;;;;5074505;28;19962;-42
2022/11/07 09:52:23;;;;;;;;;;;16.80;90.50;;;;;;5074482;28;20294;-42
2022/11/07 09:54:57;;;;;;;;;;;16.80;90.50;;;;;;5074505;28;20007;-42
2022/11/07 09:57:22;;;;;;;;;;;16.80;90.40;;;;;;5074369;28;19909;-42
2022/11/07 09:59:56;;;;;;;;;;;16.80;90.40;;;;;;5074284;28;19909;-42
2022/11/07 10:02:25;;;;;;;;;;;16.80;90.40;;;;;;5073960;28;19908;-43
2022/11/07 10:04:56;;;;;;;;;;;16.80;90.40;;;;;;5073822;28;19912;-42
2022/11/07 10:07:33;;;;;;;;;;;16.90;90.40;;;;;;5073732;28;19928;-42
2022/11/07 10:09:58;;;;;;;;;;;16.80;90.60;;;;;;5073921;28;19913;-42
2022/11/07 10:12:28;;;;;;;;;;;16.80;90.40;;;;;;5073312;28;20392;-44
2022/11/07 10:15:02;;;;;;;;;;;16.90;90.50;;;;;;5073989;28;19912;-42
2022/11/07 10:17:27;;;;;;;;;;;16.80;90.50;;;;;;5074029;28;20357;-42
2022/11/07 10:20:19;;;;;;;;;;;16.80;90.50;;;;;;5073830;28;19916;-43
2022/11/07 10:23:05;;;;;;;;;;;16.80;90.50;;;;;;5070502;28;19909;-44
2022/11/07 10:25:37;;;;;;;;;;;16.80;90.50;;;;;;5073303;28;19908;-44
2022/11/07 10:28:05;;;;;;;;;;;16.80;90.60;;;;;;5073539;28;19915;-42
2022/11/07 10:30:31;;;;;;;;;;;16.80;90.60;;;;;;5073345;28;20383;-43
2022/11/07 10:33:03;;;;;;;;;;;16.70;90.50;;;;;;5073889;28;19935;-43
2022/11/07 10:35:30;;;;;;;;;;;16.80;90.60;;;;;;5073591;28;20407;-45
2022/11/07 10:37:57;;;;;;;;;;;16.80;90.60;;;;;;5073459;28;20371;-43
2022/11/07 10:40:27;;;;;;;;;;;16.80;90.50;;;;;;5073855;28;19909;-46
2022/11/07 10:42:52;;;;;;;;;;;16.80;90.50;;;;;;5073904;28;19908;-43
2022/11/07 10:45:17;;;;;;;;;;;16.80;90.50;;;;;;5054735;28;19932;-42
2022/11/07 10:47:53;;;;;;;;;;;16.90;90.50;;;;;;5073451;28;19966;-42
2022/11/07 10:50:20;;;;;;;;;;;16.90;90.50;;;;;;5073526;28;19912;-42
2022/11/07 10:52:53;;;;;;;;;;;16.90;90.50;;;;;;5073454;28;19965;-42
2022/11/07 10:55:19;;;;;;;;;;;16.80;90.50;;;;;;5073253;28;19909;-42
2022/11/07 10:57:46;;;;;;;;;;;16.80;90.50;;;;;;5073222;28;19962;-45
2022/11/07 11:00:24;;;;;;;;;;;16.80;90.50;;;;;;5073626;28;19908;-42
2022/11/07 11:02:50;;;;;;;;;;;16.80;90.60;;;;;;5073520;28;19909;-44
2022/11/07 11:05:23;;;;;;;;;;;16.80;90.60;;;;;;5073320;28;19962;-45
2022/11/07 11:07:49;;;;;;;;;;;16.80;90.60;;;;;;5073054;28;20310;-44
2022/11/07 11:10:29;;;;;;;;;;;16.80;90.60;;;;;;5073142;28;19920;-44
2022/11/07 11:12:55;;;;;;;;;;;16.70;90.60;;;;;;5073357;28;19912;-44
2022/11/07 11:15:22;;;;;;;;;;;16.70;90.70;;;;;;5072845;28;19931;-43
2022/11/07 11:17:59;;;;;;;;;;;16.70;90.70;;;;;;5072995;28;19908;-43
2022/11/07 11:20:33;;;;;;;;;;;16.70;90.70;;;;;;5055405;28;20003;-42
2022/11/07 11:22:59;;;;;;;;;;;16.70;90.70;;;;;;5073375;28;19908;-43
2022/11/07 11:25:25;;;;;;;;;;;16.70;90.80;;;;;;5073375;28;19932;-45
2022/11/07 11:27:54;;;;;;;;;;;16.60;90.70;;;;;;5073456;28;20343;-43
2022/11/07 11:30:20;;;;;;;;;;;16.70;90.70;;;;;;5073275;28;20337;-45
2022/11/07 11:32:52;;;;;;;;;;;16.70;90.70;;;;;;5072754;28;19913;-42
2022/11/07 11:35:30;;;;;;;;;;;16.70;90.60;;;;;;5055005;28;20003;-42
2022/11/07 11:37:59;;;;;;;;;;;16.80;90.60;;;;;;5073100;28;20370;-44
2022/11/07 11:40:25;;;;;;;;;;;16.80;90.50;;;;;;5073270;28;19955;-44
2022/11/07 11:42:57;;;;;;;;;;;16.90;90.50;;;;;;5072887;28;19915;-44
2022/11/07 11:45:27;;;;;;;;;;;16.90;90.40;;;;;;5072909;28;19970;-42
2022/11/07 11:47:57;;;;;;;;;;;16.90;90.40;;;;;;5073253;28;20019;-43
2022/11/07 11:50:27;;;;;;;;;;;17.00;90.40;;;;;;5072768;28;19935;-42
2022/11/07 11:52:53;;;;;;;;;;;16.90;90.60;;;;;;5073075;28;19979;-43
2022/11/07 11:55:19;;;;;;;;;;;16.90;90.30;;;;;;5072799;28;20022;-43
2022/11/07 11:57:56;;;;;;;;;;;17.00;90.40;;;;;;5075239;28;19909;-42
2022/11/07 12:00:23;;;;;;;;;;;16.90;90.30;;;;;;5076674;28;20351;-42
2022/11/07 12:02:57;;;;;;;;;;;17.00;90.40;;;;;;5076518;28;19909;-42
2022/11/07 12:05:23;;;;;;;;;;;16.90;90.40;;;;;;5076910;28;19908;-44
2022/11/07 12:07:53;;;;;;;;;;;16.90;90.40;;;;;;5076509;28;19928;-42
2022/11/07 12:10:29;;;;;;;;;;;16.90;90.40;;;;;;5076499;28;19962;-43
2022/11/07 12:13:03;;;;;;;;;;;16.90;90.50;;;;;;5076106;28;19939;-44
2022/11/07 12:15:40;;;;;;;;;;;16.80;90.50;;;;;;5076322;28;19926;-43
2022/11/07 12:18:17;;;;;;;;;;;16.80;90.50;;;;;;5058358;28;19967;-42
2022/11/07 12:21:04;;;;;;;;;;;16.80;90.50;;;;;;5076118;28;20013;-42
2022/11/07 12:23:48;;;;;;;;;;;16.80;90.60;;;;;;5076294;28;19909;-42
2022/11/07 12:26:26;;;;;;;;;;;16.80;90.60;;;;;;5075692;28;19913;-43
2022/11/07 12:28:54;;;;;;;;;;;16.80;90.60;;;;;;5075794;28;19908;-44
2022/11/07 12:31:25;;;;;;;;;;;16.80;90.60;;;;;;5058002;28;19920;-43
2022/11/07 12:34:03;;;;;;;;;;;16.80;90.60;;;;;;5076069;28;19974;-44
2022/11/07 12:36:39;;;;;;;;;;;16.80;90.60;;;;;;5075622;28;20007;-42
2022/11/07 12:39:26;;;;;;;;;;;16.80;90.50;;;;;;5075795;28;19928;-42
2022/11/07 12:42:05;;;;;;;;;;;16.90;90.50;;;;;;5075758;28;19915;-44
2022/11/07 12:44:49;;;;;;;;;;;16.90;90.50;;;;;;5075787;28;19909;-42
2022/11/07 12:47:35;;;;;;;;;;;16.80;90.50;;;;;;5075721;28;20003;-45
2022/11/07 12:50:01;;;;;;;;;;;16.80;90.50;;;;;;5075793;28;19954;-44
2022/11/07 12:52:35;;;;;;;;;;;16.90;90.50;;;;;;5075729;28;19913;-43
2022/11/07 12:55:13;;;;;;;;;;;16.80;90.50;;;;;;5075573;28;19909;-43
2022/11/07 12:57:39;;;;;;;;;;;16.80;90.50;;;;;;5075124;28;19915;-43
2022/11/07 13:00:05;;;;;;;;;;;16.80;90.50;;;;;;5075510;28;19908;-42
2022/11/07 13:02:52;;;;;;;;;;;16.80;90.50;;;;;;5057120;28;20007;-44
2022/11/07 13:05:28;;;;;;;;;;;16.80;90.60;;;;;;5075657;28;19908;-44
2022/11/07 13:07:57;;;;;;;;;;;16.80;90.60;;;;;;5074751;28;19924;-44
2022/11/07 13:10:30;;;;;;;;;;;16.80;90.60;;;;;;5074871;28;20422;-46
2022/11/07 13:13:18;;;;;;;;;;;16.80;90.60;;;;;;5074864;28;20434;-44
2022/11/07 13:15:44;;;;;;;;;;;16.80;90.60;;;;;;5074727;28;19958;-42
2022/11/07 13:18:13;;;;;;;;;;;16.80;90.60;;;;;;5074715;28;19909;-42
2022/11/07 13:20:38;;;;;;;;;;;16.80;90.60;;;;;;5074986;28;19915;-43
2022/11/07 13:23:12;;;;;;;;;;;16.80;90.60;;;;;;5074904;28;20271;-44
2022/11/07 13:25:39;;;;;;;;;;;16.80;90.60;;;;;;5074766;28;19909;-42
2022/11/07 13:28:23;;;;;;;;;;;16.80;90.50;;;;;;5074968;28;19916;-44
2022/11/07 13:30:53;;;;;;;;;;;16.80;90.50;;;;;;5074960;28;19913;-42
2022/11/07 13:33:23;;;;;;;;;;;16.80;90.50;;;;;;5074421;28;19912;-42
2022/11/07 13:35:53;;;;;;;;;;;16.90;90.50;;;;;;5074072;28;19915;-42
2022/11/07 13:38:22;;;;;;;;;;;16.90;90.50;;;;;;5074031;28;19908;-44
2022/11/07 13:40:48;;;;;;;;;;;16.90;90.50;;;;;;5074650;28;19962;-43
2022/11/07 13:43:16;;;;;;;;;;;16.90;90.50;;;;;;5074673;28;19913;-42
2022/11/07 13:45:48;;;;;;;;;;;16.80;90.50;;;;;;5074449;28;19909;-43
2022/11/07 13:48:34;;;;;;;;;;;16.90;90.50;;;;;;5074486;28;20021;-42
2022/11/07 13:51:11;;;;;;;;;;;16.80;90.50;;;;;;5073601;28;19962;-42
2022/11/07 13:53:55;;;;;;;;;;;16.80;90.50;;;;;;5073874;28;19912;-45
2022/11/07 13:56:20;;;;;;;;;;;16.80;90.60;;;;;;5074036;28;19940;-42
2022/11/07 13:58:47;;;;;;;;;;;16.80;90.60;;;;;;5073973;28;20317;-43
2022/11/07 14:01:13;;;;;;;;;;;16.80;90.60;;;;;;5056492;28;20007;-44
2022/11/07 14:03:38;;;;;;;;;;;16.80;90.60;;;;;;5073903;28;19947;-45
2022/11/07 14:06:04;;;;;;;;;;;16.70;90.60;;;;;;5073835;28;20022;-43
2022/11/07 14:08:31;;;;;;;;;;;16.70;90.60;;;;;;5074234;28;20261;-42
2022/11/07 14:10:57;;;;;;;;;;;16.70;90.60;;;;;;5073955;28;19923;-44
2022/11/07 14:13:23;;;;;;;;;;;16.70;90.60;;;;;;5074094;28;19913;-44
2022/11/07 14:15:52;;;;;;;;;;;16.70;90.60;;;;;;5073682;28;19931;-43
2022/11/07 14:18:19;;;;;;;;;;;16.80;90.60;;;;;;5073671;28;20007;-42
2022/11/07 14:20:45;;;;;;;;;;;16.80;90.60;;;;;;5073700;28;20378;-43
2022/11/07 14:23:12;;;;;;;;;;;16.80;90.60;;;;;;5074090;28;19953;-43
2022/11/07 14:25:37;;;;;;;;;;;16.80;90.50;;;;;;5074052;28;19908;-43
2022/11/07 14:28:05;;;;;;;;;;;16.80;90.50;;;;;;5073598;28;19992;-43
2022/11/07 14:30:30;;;;;;;;;;;16.80;90.40;;;;;;5073644;28;19912;-43